Schenectady, NY

10:13 AM EDT on August 28, 2014 (GMT -0400)
Daily Gazette | Change Station
CLOSE
Current Station
Personal Weather Station
Location: Schenectady, NY
Elevation: 295 ft
Nearby Weather Stations

Elev 295 ft 42.83 °N, 73.92 °W | Updated 4 seconds ago

Scattered Clouds
Scattered Clouds
72.7 °F
Feels Like 76 °F
N
2.0
Wind Variable Wind from WNW
Gusts 16.0 mph

Today
High -- | Low -- °F
--% Chance of Precip.
Yesterday
High -- | Low -- °F
Precip. -- in
6:15 AM 7:36 PM
Waxing Crescent, 8% visible
Pressure 29.92 in
Visibility 10.0 miles
Clouds Scattered Clouds 6000 ft
Heat Index 76 °F
Dew Point 60 °F
Humidity 65%
Rainfall 0.00 in
Snow Depth Not available.
UV 2 out of 12
Pollen 9.10 out of 12
Ozone Good
PM2.5 Good
Flu Activity Not available.
METAR KSCH 281249Z 29008KT 10SM SCT060 19/15 A2992

More Conditions Fewer Conditions

Pressure 29.92 in
Visibility 10.0 miles
Clouds Scattered Clouds 6000 ft
Heat Index 76 °F
Dew Point 60 °F
Humidity 65%
Rainfall 0.00 in
Snow Depth Not available.
UV 2 out of 12
Pollen 9.10 out of 12
Ozone Good
PM2.5 Good
Flu Activity Not available.
METAR KSCH 281249Z 29008KT 10SM SCT060 19/15 A2992

More Conditions Fewer Conditions

10-Day Weather Forecast

Almanac

Astronomy

Aug. 28, 2014 Rise Set
Actual Time 6:15 AM EDT 7:36 PM EDT
Civil Twilight 5:46 AM EDT 8:06 PM EDT
Nautical Twilight 5:10 AM EDT 8:41 PM EDT
Astronomical Twilight 4:33 AM EDT 9:18 PM EDT
Moon 9:10 AM EDT 8:53 PM EDT
Length of Visible Light 14h 19m
Length of Day
13h 21m
Tomorrow will be 2m 45s shorter.
Waxing Crescent, 8% of the Moon is Illuminated
Today
Waxing Crescent
Sep 2
First Quarter
Sep 8
Full
Sep 15
Last Quarter
Sep 24
New

Today's Extremes

State Highs State Lows

Community

WunderPhotos

Upload Photos

1,747,958 photos uploaded!

Nearby

Air Quality

  Air Quality AQ Index Pollutant
Yesterday Unhealthy for Sensitive Groups
OZONE
Yesterday Moderate
PM2.5
Current Good
PM2.5
Current Good
OZONE
Thursday Good
OZONE
Thursday Good
PM2.5

Snow Depth

Station Depth Elevation
No new snow has been reported.

Earthquake Activity

City Distance Mag. Time & Date
No recent earthquake activity has been reported nearby.
Minimum magnitude displayed is 2.5.

Coastal Water Temperatures

Place Temperature
No Stations Reporting

Nearby Weather Stations